sensor_id;sensor_type;location;lat;lon;timestamp;P1;durP1;ratioP1;P2;durP2;ratioP2
22230;SDS011;11284;48.086;-1.652;2022-09-09T00:00:24;15.88;;;2.92;;
22230;SDS011;11284;48.086;-1.652;2022-09-09T00:07:45;15.35;;;2.92;;
22230;SDS011;11284;48.086;-1.652;2022-09-09T00:15:18;13.25;;;3.00;;
22230;SDS011;11284;48.086;-1.652;2022-09-09T00:20:16;13.77;;;3.53;;
22230;SDS011;11284;48.086;-1.652;2022-09-09T00:23:06;16.35;;;3.22;;
22230;SDS011;11284;48.086;-1.652;2022-09-09T00:25:34;12.63;;;2.90;;
22230;SDS011;11284;48.086;-1.652;2022-09-09T00:28:04;14.05;;;2.67;;
22230;SDS011;11284;48.086;-1.652;2022-09-09T00:30:34;11.98;;;2.63;;
22230;SDS011;11284;48.086;-1.652;2022-09-09T00:33:03;15.27;;;2.97;;
22230;SDS011;11284;48.086;-1.652;2022-09-09T00:35:37;13.63;;;3.03;;
22230;SDS011;11284;48.086;-1.652;2022-09-09T00:38:11;17.45;;;3.92;;
22230;SDS011;11284;48.086;-1.652;2022-09-09T00:40:41;13.43;;;3.10;;
22230;SDS011;11284;48.086;-1.652;2022-09-09T00:45:57;11.65;;;3.15;;
22230;SDS011;11284;48.086;-1.652;2022-09-09T00:48:31;10.73;;;2.80;;
22230;SDS011;11284;48.086;-1.652;2022-09-09T00:51:02;12.32;;;3.35;;
22230;SDS011;11284;48.086;-1.652;2022-09-09T00:56:12;10.35;;;2.42;;
22230;SDS011;11284;48.086;-1.652;2022-09-09T00:58:42;14.60;;;2.83;;
22230;SDS011;11284;48.086;-1.652;2022-09-09T01:01:09;12.18;;;3.00;;
22230;SDS011;11284;48.086;-1.652;2022-09-09T01:11:01;13.57;;;3.00;;
22230;SDS011;11284;48.086;-1.652;2022-09-09T01:13:30;9.95;;;2.58;;
22230;SDS011;11284;48.086;-1.652;2022-09-09T01:15:58;13.65;;;2.97;;
22230;SDS011;11284;48.086;-1.652;2022-09-09T01:18:35;12.73;;;2.50;;
22230;SDS011;11284;48.086;-1.652;2022-09-09T01:21:09;16.08;;;2.42;;
22230;SDS011;11284;48.086;-1.652;2022-09-09T01:28:50;12.55;;;2.60;;
22230;SDS011;11284;48.086;-1.652;2022-09-09T01:31:39;9.15;;;3.03;;
22230;SDS011;11284;48.086;-1.652;2022-09-09T01:34:12;16.98;;;3.47;;
22230;SDS011;11284;48.086;-1.652;2022-09-09T01:36:57;14.95;;;3.35;;
22230;SDS011;11284;48.086;-1.652;2022-09-09T01:39:23;11.20;;;2.60;;
22230;SDS011;11284;48.086;-1.652;2022-09-09T01:41:50;14.82;;;2.78;;
22230;SDS011;11284;48.086;-1.652;2022-09-09T01:44:16;15.90;;;3.20;;
22230;SDS011;11284;48.086;-1.652;2022-09-09T01:46:43;12.82;;;2.80;;
22230;SDS011;11284;48.086;-1.652;2022-09-09T01:55:16;11.85;;;2.45;;
22230;SDS011;11284;48.086;-1.652;2022-09-09T02:00:28;10.05;;;2.75;;
22230;SDS011;11284;48.086;-1.652;2022-09-09T02:03:08;10.50;;;2.53;;
22230;SDS011;11284;48.086;-1.652;2022-09-09T02:05:39;9.45;;;1.92;;
22230;SDS011;11284;48.086;-1.652;2022-09-09T02:08:07;9.93;;;2.42;;
22230;SDS011;11284;48.086;-1.652;2022-09-09T02:13:13;10.13;;;2.38;;
22230;SDS011;11284;48.086;-1.652;2022-09-09T02:15:53;13.15;;;2.35;;
22230;SDS011;11284;48.086;-1.652;2022-09-09T02:18:24;12.10;;;2.72;;
22230;SDS011;11284;48.086;-1.652;2022-09-09T02:20:52;12.38;;;2.60;;
22230;SDS011;11284;48.086;-1.652;2022-09-09T02:23:18;8.70;;;2.03;;
22230;SDS011;11284;48.086;-1.652;2022-09-09T02:25:45;11.70;;;2.33;;
22230;SDS011;11284;48.086;-1.652;2022-09-09T02:28:11;11.57;;;2.35;;
22230;SDS011;11284;48.086;-1.652;2022-09-09T02:30:39;11.45;;;2.30;;
22230;SDS011;11284;48.086;-1.652;2022-09-09T02:33:06;9.02;;;2.22;;
22230;SDS011;11284;48.086;-1.652;2022-09-09T02:35:33;11.45;;;2.10;;
22230;SDS011;11284;48.086;-1.652;2022-09-09T02:38:03;7.50;;;2.00;;
22230;SDS011;11284;48.086;-1.652;2022-09-09T02:40:30;8.48;;;2.20;;
22230;SDS011;11284;48.086;-1.652;2022-09-09T02:42:56;11.23;;;2.10;;
22230;SDS011;11284;48.086;-1.652;2022-09-09T02:45:25;8.00;;;2.33;;
22230;SDS011;11284;48.086;-1.652;2022-09-09T02:50:40;13.73;;;2.65;;
22230;SDS011;11284;48.086;-1.652;2022-09-09T02:53:11;11.52;;;2.00;;
22230;SDS011;11284;48.086;-1.652;2022-09-09T02:58:08;7.03;;;1.88;;
22230;SDS011;11284;48.086;-1.652;2022-09-09T03:00:36;13.05;;;2.38;;
22230;SDS011;11284;48.086;-1.652;2022-09-09T03:03:08;10.90;;;2.33;;
22230;SDS011;11284;48.086;-1.652;2022-09-09T03:05:35;9.67;;;2.03;;
22230;SDS011;11284;48.086;-1.652;2022-09-09T03:08:01;11.80;;;2.30;;
22230;SDS011;11284;48.086;-1.652;2022-09-09T03:10:28;7.10;;;1.85;;
22230;SDS011;11284;48.086;-1.652;2022-09-09T03:12:54;8.63;;;2.25;;
22230;SDS011;11284;48.086;-1.652;2022-09-09T03:15:20;11.57;;;1.88;;
22230;SDS011;11284;48.086;-1.652;2022-09-09T03:17:46;7.72;;;2.10;;
22230;SDS011;11284;48.086;-1.652;2022-09-09T03:20:12;11.90;;;2.30;;
22230;SDS011;11284;48.086;-1.652;2022-09-09T03:22:38;10.70;;;2.28;;
22230;SDS011;11284;48.086;-1.652;2022-09-09T03:25:05;11.35;;;2.25;;
22230;SDS011;11284;48.086;-1.652;2022-09-09T03:27:31;12.90;;;2.42;;
22230;SDS011;11284;48.086;-1.652;2022-09-09T03:29:57;10.15;;;1.98;;
22230;SDS011;11284;48.086;-1.652;2022-09-09T03:32:24;13.68;;;2.30;;
22230;SDS011;11284;48.086;-1.652;2022-09-09T03:34:51;7.85;;;2.10;;
22230;SDS011;11284;48.086;-1.652;2022-09-09T03:37:20;10.90;;;2.60;;
22230;SDS011;11284;48.086;-1.652;2022-09-09T03:39:47;7.30;;;1.85;;
22230;SDS011;11284;48.086;-1.652;2022-09-09T03:42:13;7.90;;;1.73;;
22230;SDS011;11284;48.086;-1.652;2022-09-09T03:44:39;7.90;;;1.85;;
22230;SDS011;11284;48.086;-1.652;2022-09-09T03:47:07;9.13;;;2.35;;
22230;SDS011;11284;48.086;-1.652;2022-09-09T03:49:33;9.38;;;1.95;;
22230;SDS011;11284;48.086;-1.652;2022-09-09T03:51:59;13.20;;;2.70;;
22230;SDS011;11284;48.086;-1.652;2022-09-09T03:54:26;8.95;;;2.08;;
22230;SDS011;11284;48.086;-1.652;2022-09-09T03:56:52;10.10;;;2.33;;
22230;SDS011;11284;48.086;-1.652;2022-09-09T03:59:18;11.77;;;1.90;;
22230;SDS011;11284;48.086;-1.652;2022-09-09T04:01:46;12.70;;;2.00;;
22230;SDS011;11284;48.086;-1.652;2022-09-09T04:04:12;7.80;;;2.00;;
22230;SDS011;11284;48.086;-1.652;2022-09-09T04:06:38;11.27;;;2.10;;
22230;SDS011;11284;48.086;-1.652;2022-09-09T04:09:04;7.35;;;2.05;;
22230;SDS011;11284;48.086;-1.652;2022-09-09T04:11:30;12.00;;;2.17;;
22230;SDS011;11284;48.086;-1.652;2022-09-09T04:13:56;10.77;;;2.22;;
22230;SDS011;11284;48.086;-1.652;2022-09-09T04:16:22;12.15;;;2.28;;
22230;SDS011;11284;48.086;-1.652;2022-09-09T04:18:48;13.75;;;2.10;;
22230;SDS011;11284;48.086;-1.652;2022-09-09T04:21:14;10.05;;;2.22;;
22230;SDS011;11284;48.086;-1.652;2022-09-09T04:23:41;11.20;;;2.05;;
22230;SDS011;11284;48.086;-1.652;2022-09-09T04:26:07;9.02;;;2.35;;
22230;SDS011;11284;48.086;-1.652;2022-09-09T04:28:34;12.07;;;2.30;;
22230;SDS011;11284;48.086;-1.652;2022-09-09T04:31:08;9.90;;;2.10;;
22230;SDS011;11284;48.086;-1.652;2022-09-09T04:33:34;11.43;;;2.10;;
22230;SDS011;11284;48.086;-1.652;2022-09-09T04:36:00;13.48;;;2.65;;
22230;SDS011;11284;48.086;-1.652;2022-09-09T04:38:26;13.27;;;2.40;;
22230;SDS011;11284;48.086;-1.652;2022-09-09T04:40:52;10.45;;;2.65;;
22230;SDS011;11284;48.086;-1.652;2022-09-09T04:43:19;11.98;;;2.22;;
22230;SDS011;11284;48.086;-1.652;2022-09-09T04:45:49;10.95;;;2.28;;
22230;SDS011;11284;48.086;-1.652;2022-09-09T04:48:16;9.52;;;1.88;;
22230;SDS011;11284;48.086;-1.652;2022-09-09T04:50:42;9.43;;;2.33;;
22230;SDS011;11284;48.086;-1.652;2022-09-09T04:53:08;9.95;;;2.33;;
22230;SDS011;11284;48.086;-1.652;2022-09-09T04:55:34;9.60;;;2.20;;
22230;SDS011;11284;48.086;-1.652;2022-09-09T04:58:07;11.45;;;2.47;;
22230;SDS011;11284;48.086;-1.652;2022-09-09T05:00:36;10.95;;;2.13;;
22230;SDS011;11284;48.086;-1.652;2022-09-09T05:03:02;11.60;;;2.17;;
22230;SDS011;11284;48.086;-1.652;2022-09-09T05:05:29;15.55;;;2.85;;
22230;SDS011;11284;48.086;-1.652;2022-09-09T05:08:00;10.98;;;2.53;;
22230;SDS011;11284;48.086;-1.652;2022-09-09T05:10:26;11.52;;;2.42;;
22230;SDS011;11284;48.086;-1.652;2022-09-09T05:12:53;11.82;;;2.78;;
22230;SDS011;11284;48.086;-1.652;2022-09-09T05:15:19;10.85;;;2.17;;
22230;SDS011;11284;48.086;-1.652;2022-09-09T05:17:48;15.00;;;2.70;;
22230;SDS011;11284;48.086;-1.652;2022-09-09T05:20:14;8.45;;;2.17;;
22230;SDS011;11284;48.086;-1.652;2022-09-09T05:22:40;14.32;;;2.42;;
22230;SDS011;11284;48.086;-1.652;2022-09-09T05:25:06;11.50;;;2.65;;
22230;SDS011;11284;48.086;-1.652;2022-09-09T05:27:35;14.07;;;2.72;;
22230;SDS011;11284;48.086;-1.652;2022-09-09T05:30:02;16.50;;;2.90;;
22230;SDS011;11284;48.086;-1.652;2022-09-09T05:32:29;12.98;;;2.60;;
22230;SDS011;11284;48.086;-1.652;2022-09-09T05:34:59;11.88;;;2.75;;
22230;SDS011;11284;48.086;-1.652;2022-09-09T05:37:25;13.18;;;2.80;;
22230;SDS011;11284;48.086;-1.652;2022-09-09T05:39:51;15.30;;;3.03;;
22230;SDS011;11284;48.086;-1.652;2022-09-09T05:42:18;12.75;;;2.50;;
22230;SDS011;11284;48.086;-1.652;2022-09-09T05:44:44;13.20;;;2.55;;
22230;SDS011;11284;48.086;-1.652;2022-09-09T05:47:10;12.00;;;2.58;;
22230;SDS011;11284;48.086;-1.652;2022-09-09T05:49:36;16.25;;;3.05;;
22230;SDS011;11284;48.086;-1.652;2022-09-09T05:52:02;12.63;;;2.45;;
22230;SDS011;11284;48.086;-1.652;2022-09-09T05:54:29;14.07;;;2.92;;
22230;SDS011;11284;48.086;-1.652;2022-09-09T05:56:55;9.85;;;2.80;;
22230;SDS011;11284;48.086;-1.652;2022-09-09T05:59:21;10.27;;;2.50;;
22230;SDS011;11284;48.086;-1.652;2022-09-09T06:01:48;14.23;;;2.70;;
22230;SDS011;11284;48.086;-1.652;2022-09-09T06:04:14;10.82;;;2.35;;
22230;SDS011;11284;48.086;-1.652;2022-09-09T06:06:41;13.07;;;2.65;;
22230;SDS011;11284;48.086;-1.652;2022-09-09T06:09:07;11.05;;;2.42;;
22230;SDS011;11284;48.086;-1.652;2022-09-09T06:11:35;15.45;;;2.80;;
22230;SDS011;11284;48.086;-1.652;2022-09-09T06:14:02;11.38;;;2.67;;
22230;SDS011;11284;48.086;-1.652;2022-09-09T06:16:29;14.77;;;2.75;;
22230;SDS011;11284;48.086;-1.652;2022-09-09T06:18:55;10.07;;;2.45;;
22230;SDS011;11284;48.086;-1.652;2022-09-09T06:21:26;10.13;;;2.55;;
22230;SDS011;11284;48.086;-1.652;2022-09-09T06:23:52;9.25;;;2.25;;
22230;SDS011;11284;48.086;-1.652;2022-09-09T06:26:29;13.25;;;2.70;;
22230;SDS011;11284;48.086;-1.652;2022-09-09T06:28:55;15.23;;;2.63;;
22230;SDS011;11284;48.086;-1.652;2022-09-09T06:31:23;10.63;;;2.58;;
22230;SDS011;11284;48.086;-1.652;2022-09-09T06:33:50;17.60;;;4.55;;
22230;SDS011;11284;48.086;-1.652;2022-09-09T06:36:20;14.48;;;2.78;;
22230;SDS011;11284;48.086;-1.652;2022-09-09T06:38:47;12.85;;;2.53;;
22230;SDS011;11284;48.086;-1.652;2022-09-09T06:41:14;14.90;;;2.72;;
22230;SDS011;11284;48.086;-1.652;2022-09-09T06:43:40;12.27;;;2.88;;
22230;SDS011;11284;48.086;-1.652;2022-09-09T06:48:35;11.88;;;2.58;;
22230;SDS011;11284;48.086;-1.652;2022-09-09T06:51:06;12.18;;;2.60;;
22230;SDS011;11284;48.086;-1.652;2022-09-09T06:53:35;14.32;;;3.58;;
22230;SDS011;11284;48.086;-1.652;2022-09-09T06:56:13;13.82;;;2.67;;
22230;SDS011;11284;48.086;-1.652;2022-09-09T06:58:42;9.52;;;2.58;;
22230;SDS011;11284;48.086;-1.652;2022-09-09T07:01:10;13.75;;;2.88;;
22230;SDS011;11284;48.086;-1.652;2022-09-09T07:03:37;13.43;;;2.42;;
22230;SDS011;11284;48.086;-1.652;2022-09-09T07:06:04;11.18;;;2.50;;
22230;SDS011;11284;48.086;-1.652;2022-09-09T07:08:30;10.60;;;2.67;;
22230;SDS011;11284;48.086;-1.652;2022-09-09T07:11:05;10.43;;;2.78;;
22230;SDS011;11284;48.086;-1.652;2022-09-09T07:13:32;11.88;;;2.42;;
22230;SDS011;11284;48.086;-1.652;2022-09-09T07:16:05;9.50;;;2.38;;
22230;SDS011;11284;48.086;-1.652;2022-09-09T07:18:31;11.93;;;2.45;;
22230;SDS011;11284;48.086;-1.652;2022-09-09T07:20:58;9.68;;;2.47;;
22230;SDS011;11284;48.086;-1.652;2022-09-09T07:23:24;14.57;;;2.90;;
22230;SDS011;11284;48.086;-1.652;2022-09-09T07:25:51;9.10;;;2.38;;
22230;SDS011;11284;48.086;-1.652;2022-09-09T07:28:18;11.45;;;2.25;;
22230;SDS011;11284;48.086;-1.652;2022-09-09T07:30:52;11.07;;;2.05;;
22230;SDS011;11284;48.086;-1.652;2022-09-09T07:33:18;10.85;;;2.28;;
22230;SDS011;11284;48.086;-1.652;2022-09-09T07:35:45;10.07;;;2.50;;
22230;SDS011;11284;48.086;-1.652;2022-09-09T07:38:11;8.68;;;2.17;;
22230;SDS011;11284;48.086;-1.652;2022-09-09T07:40:37;9.13;;;2.10;;
22230;SDS011;11284;48.086;-1.652;2022-09-09T07:43:04;12.05;;;2.08;;
22230;SDS011;11284;48.086;-1.652;2022-09-09T07:45:30;11.13;;;2.60;;
22230;SDS011;11284;48.086;-1.652;2022-09-09T07:47:57;8.43;;;2.05;;
22230;SDS011;11284;48.086;-1.652;2022-09-09T07:50:23;10.85;;;2.38;;
22230;SDS011;11284;48.086;-1.652;2022-09-09T07:52:50;11.00;;;2.00;;
22230;SDS011;11284;48.086;-1.652;2022-09-09T07:55:16;13.45;;;2.33;;
22230;SDS011;11284;48.086;-1.652;2022-09-09T07:57:42;8.57;;;2.00;;
22230;SDS011;11284;48.086;-1.652;2022-09-09T08:00:09;9.65;;;2.45;;
22230;SDS011;11284;48.086;-1.652;2022-09-09T08:02:35;8.98;;;2.25;;
22230;SDS011;11284;48.086;-1.652;2022-09-09T08:05:01;12.65;;;2.28;;
22230;SDS011;11284;48.086;-1.652;2022-09-09T08:07:28;12.43;;;2.13;;
22230;SDS011;11284;48.086;-1.652;2022-09-09T08:09:54;9.63;;;2.33;;
22230;SDS011;11284;48.086;-1.652;2022-09-09T08:12:20;9.15;;;2.17;;
22230;SDS011;11284;48.086;-1.652;2022-09-09T08:14:47;8.13;;;1.67;;
22230;SDS011;11284;48.086;-1.652;2022-09-09T08:17:13;11.63;;;2.20;;
22230;SDS011;11284;48.086;-1.652;2022-09-09T08:19:39;13.25;;;2.47;;
22230;SDS011;11284;48.086;-1.652;2022-09-09T08:22:06;7.65;;;1.90;;
22230;SDS011;11284;48.086;-1.652;2022-09-09T08:24:33;11.27;;;2.10;;
22230;SDS011;11284;48.086;-1.652;2022-09-09T08:26:59;9.52;;;1.80;;
22230;SDS011;11284;48.086;-1.652;2022-09-09T08:29:26;10.95;;;1.92;;
22230;SDS011;11284;48.086;-1.652;2022-09-09T08:31:54;10.88;;;1.98;;
22230;SDS011;11284;48.086;-1.652;2022-09-09T08:34:22;10.43;;;2.13;;
22230;SDS011;11284;48.086;-1.652;2022-09-09T08:36:48;10.48;;;2.00;;
22230;SDS011;11284;48.086;-1.652;2022-09-09T08:39:16;12.90;;;2.20;;
22230;SDS011;11284;48.086;-1.652;2022-09-09T08:52:27;10.90;;;2.60;;
22230;SDS011;11284;48.086;-1.652;2022-09-09T08:54:58;11.15;;;2.28;;
22230;SDS011;11284;48.086;-1.652;2022-09-09T08:57:28;7.60;;;1.83;;
22230;SDS011;11284;48.086;-1.652;2022-09-09T08:59:56;9.70;;;2.08;;
22230;SDS011;11284;48.086;-1.652;2022-09-09T09:10:02;7.90;;;1.80;;
22230;SDS011;11284;48.086;-1.652;2022-09-09T09:12:31;10.20;;;2.15;;
22230;SDS011;11284;48.086;-1.652;2022-09-09T09:14:59;11.43;;;1.80;;
22230;SDS011;11284;48.086;-1.652;2022-09-09T09:17:26;11.88;;;2.20;;
22230;SDS011;11284;48.086;-1.652;2022-09-09T09:19:54;9.30;;;1.80;;
22230;SDS011;11284;48.086;-1.652;2022-09-09T09:27:18;9.23;;;1.70;;
22230;SDS011;11284;48.086;-1.652;2022-09-09T09:29:47;7.95;;;1.80;;
22230;SDS011;11284;48.086;-1.652;2022-09-09T09:32:15;9.07;;;2.03;;
22230;SDS011;11284;48.086;-1.652;2022-09-09T09:34:42;10.18;;;1.90;;
22230;SDS011;11284;48.086;-1.652;2022-09-09T09:37:25;8.88;;;1.92;;
22230;SDS011;11284;48.086;-1.652;2022-09-09T09:39:53;8.95;;;1.88;;
22230;SDS011;11284;48.086;-1.652;2022-09-09T09:42:19;9.60;;;2.03;;
22230;SDS011;11284;48.086;-1.652;2022-09-09T09:44:45;7.32;;;1.83;;
22230;SDS011;11284;48.086;-1.652;2022-09-09T09:47:21;7.30;;;1.50;;
22230;SDS011;11284;48.086;-1.652;2022-09-09T09:49:54;6.93;;;1.27;;
22230;SDS011;11284;48.086;-1.652;2022-09-09T09:52:30;8.05;;;1.60;;
22230;SDS011;11284;48.086;-1.652;2022-09-09T09:54:57;9.15;;;1.67;;
22230;SDS011;11284;48.086;-1.652;2022-09-09T09:57:27;9.32;;;1.83;;
22230;SDS011;11284;48.086;-1.652;2022-09-09T10:02:37;6.45;;;1.80;;
22230;SDS011;11284;48.086;-1.652;2022-09-09T10:05:25;10.25;;;1.92;;
22230;SDS011;11284;48.086;-1.652;2022-09-09T10:10:41;11.60;;;2.05;;
22230;SDS011;11284;48.086;-1.652;2022-09-09T10:13:18;8.85;;;1.73;;
22230;SDS011;11284;48.086;-1.652;2022-09-09T10:29:01;7.32;;;1.60;;
22230;SDS011;11284;48.086;-1.652;2022-09-09T10:31:33;7.82;;;1.70;;
22230;SDS011;11284;48.086;-1.652;2022-09-09T10:36:48;10.73;;;2.47;;
22230;SDS011;11284;48.086;-1.652;2022-09-09T10:44:22;9.52;;;1.73;;
22230;SDS011;11284;48.086;-1.652;2022-09-09T10:47:26;8.77;;;2.15;;
22230;SDS011;11284;48.086;-1.652;2022-09-09T10:57:25;7.20;;;1.77;;
22230;SDS011;11284;48.086;-1.652;2022-09-09T10:59:53;4.40;;;1.13;;
22230;SDS011;11284;48.086;-1.652;2022-09-09T11:07:34;4.85;;;1.10;;
22230;SDS011;11284;48.086;-1.652;2022-09-09T11:10:04;4.90;;;1.08;;
22230;SDS011;11284;48.086;-1.652;2022-09-09T11:12:32;5.95;;;1.10;;
22230;SDS011;11284;48.086;-1.652;2022-09-09T11:15:06;7.03;;;1.25;;
22230;SDS011;11284;48.086;-1.652;2022-09-09T11:17:42;3.90;;;1.00;;
22230;SDS011;11284;48.086;-1.652;2022-09-09T11:20:12;4.40;;;1.00;;
22230;SDS011;11284;48.086;-1.652;2022-09-09T11:22:52;4.82;;;1.10;;
22230;SDS011;11284;48.086;-1.652;2022-09-09T11:33:31;6.30;;;1.48;;
22230;SDS011;11284;48.086;-1.652;2022-09-09T11:38:46;5.47;;;1.23;;
22230;SDS011;11284;48.086;-1.652;2022-09-09T11:41:12;6.72;;;1.35;;
22230;SDS011;11284;48.086;-1.652;2022-09-09T11:43:40;6.10;;;1.20;;
22230;SDS011;11284;48.086;-1.652;2022-09-09T11:46:06;6.47;;;1.20;;
22230;SDS011;11284;48.086;-1.652;2022-09-09T11:48:37;8.30;;;1.50;;
22230;SDS011;11284;48.086;-1.652;2022-09-09T11:51:07;5.10;;;1.08;;
22230;SDS011;11284;48.086;-1.652;2022-09-09T11:53:34;8.80;;;1.70;;
22230;SDS011;11284;48.086;-1.652;2022-09-09T11:56:08;7.90;;;1.55;;
22230;SDS011;11284;48.086;-1.652;2022-09-09T11:58:41;5.75;;;1.10;;
22230;SDS011;11284;48.086;-1.652;2022-09-09T12:01:15;6.15;;;1.42;;
22230;SDS011;11284;48.086;-1.652;2022-09-09T12:03:48;5.47;;;1.40;;
22230;SDS011;11284;48.086;-1.652;2022-09-09T12:06:29;6.90;;;1.40;;
22230;SDS011;11284;48.086;-1.652;2022-09-09T12:11:28;6.00;;;1.02;;
22230;SDS011;11284;48.086;-1.652;2022-09-09T12:13:56;3.65;;;0.90;;
22230;SDS011;11284;48.086;-1.652;2022-09-09T12:19:03;5.05;;;0.85;;
22230;SDS011;11284;48.086;-1.652;2022-09-09T12:24:00;5.45;;;2.20;;
22230;SDS011;11284;48.086;-1.652;2022-09-09T12:26:47;4.90;;;1.13;;
22230;SDS011;11284;48.086;-1.652;2022-09-09T12:31:46;6.40;;;1.33;;
22230;SDS011;11284;48.086;-1.652;2022-09-09T12:34:27;8.45;;;1.52;;
22230;SDS011;11284;48.086;-1.652;2022-09-09T12:37:02;4.78;;;1.10;;
22230;SDS011;11284;48.086;-1.652;2022-09-09T12:39:29;6.17;;;1.20;;
22230;SDS011;11284;48.086;-1.652;2022-09-09T12:41:57;6.05;;;1.10;;
22230;SDS011;11284;48.086;-1.652;2022-09-09T12:44:24;5.38;;;1.17;;
22230;SDS011;11284;48.086;-1.652;2022-09-09T12:46:50;6.18;;;1.30;;
22230;SDS011;11284;48.086;-1.652;2022-09-09T12:49:25;5.47;;;1.10;;
22230;SDS011;11284;48.086;-1.652;2022-09-09T12:51:52;5.88;;;1.38;;
22230;SDS011;11284;48.086;-1.652;2022-09-09T12:54:18;5.18;;;1.23;;
22230;SDS011;11284;48.086;-1.652;2022-09-09T12:56:45;5.35;;;1.30;;
22230;SDS011;11284;48.086;-1.652;2022-09-09T12:59:23;5.78;;;1.00;;
22230;SDS011;11284;48.086;-1.652;2022-09-09T13:01:55;6.72;;;1.33;;
22230;SDS011;11284;48.086;-1.652;2022-09-09T13:04:21;5.90;;;1.27;;
22230;SDS011;11284;48.086;-1.652;2022-09-09T13:06:47;5.72;;;0.93;;
22230;SDS011;11284;48.086;-1.652;2022-09-09T13:09:14;4.80;;;1.20;;
22230;SDS011;11284;48.086;-1.652;2022-09-09T13:11:44;5.18;;;0.98;;
22230;SDS011;11284;48.086;-1.652;2022-09-09T13:14:16;5.40;;;1.13;;
22230;SDS011;11284;48.086;-1.652;2022-09-09T13:16:43;5.22;;;0.80;;
22230;SDS011;11284;48.086;-1.652;2022-09-09T13:19:13;4.38;;;1.00;;
22230;SDS011;11284;48.086;-1.652;2022-09-09T13:21:40;5.00;;;1.15;;
22230;SDS011;11284;48.086;-1.652;2022-09-09T13:29:52;5.25;;;1.15;;
22230;SDS011;11284;48.086;-1.652;2022-09-09T13:32:19;6.18;;;1.10;;
22230;SDS011;11284;48.086;-1.652;2022-09-09T13:37:37;3.50;;;0.73;;
22230;SDS011;11284;48.086;-1.652;2022-09-09T13:40:04;3.95;;;1.00;;
22230;SDS011;11284;48.086;-1.652;2022-09-09T13:42:35;5.38;;;1.25;;
22230;SDS011;11284;48.086;-1.652;2022-09-09T13:45:03;4.88;;;1.25;;
22230;SDS011;11284;48.086;-1.652;2022-09-09T13:47:33;4.97;;;1.00;;
22230;SDS011;11284;48.086;-1.652;2022-09-09T13:50:19;8.05;;;1.30;;
22230;SDS011;11284;48.086;-1.652;2022-09-09T13:52:46;5.95;;;1.23;;
22230;SDS011;11284;48.086;-1.652;2022-09-09T13:55:12;5.25;;;1.35;;
22230;SDS011;11284;48.086;-1.652;2022-09-09T13:57:38;6.80;;;1.38;;
22230;SDS011;11284;48.086;-1.652;2022-09-09T14:00:05;5.28;;;1.17;;
22230;SDS011;11284;48.086;-1.652;2022-09-09T14:02:33;3.38;;;1.05;;
22230;SDS011;11284;48.086;-1.652;2022-09-09T14:05:00;6.35;;;1.45;;
22230;SDS011;11284;48.086;-1.652;2022-09-09T14:07:26;4.70;;;0.68;;
22230;SDS011;11284;48.086;-1.652;2022-09-09T14:09:53;3.30;;;0.90;;
22230;SDS011;11284;48.086;-1.652;2022-09-09T14:12:19;2.92;;;0.85;;
22230;SDS011;11284;48.086;-1.652;2022-09-09T14:14:45;3.63;;;0.80;;
22230;SDS011;11284;48.086;-1.652;2022-09-09T14:17:11;7.00;;;1.27;;
22230;SDS011;11284;48.086;-1.652;2022-09-09T14:19:37;4.38;;;1.00;;
22230;SDS011;11284;48.086;-1.652;2022-09-09T14:22:03;4.15;;;0.98;;
22230;SDS011;11284;48.086;-1.652;2022-09-09T14:24:29;4.65;;;1.00;;
22230;SDS011;11284;48.086;-1.652;2022-09-09T14:26:55;3.25;;;0.75;;
22230;SDS011;11284;48.086;-1.652;2022-09-09T14:29:21;3.63;;;0.98;;
22230;SDS011;11284;48.086;-1.652;2022-09-09T14:31:47;4.57;;;0.80;;
22230;SDS011;11284;48.086;-1.652;2022-09-09T14:34:13;6.90;;;1.25;;
22230;SDS011;11284;48.086;-1.652;2022-09-09T14:36:40;4.35;;;0.90;;
22230;SDS011;11284;48.086;-1.652;2022-09-09T14:39:06;4.70;;;1.17;;
22230;SDS011;11284;48.086;-1.652;2022-09-09T14:41:32;3.72;;;0.90;;
22230;SDS011;11284;48.086;-1.652;2022-09-09T14:43:58;5.07;;;1.25;;
22230;SDS011;11284;48.086;-1.652;2022-09-09T14:46:25;3.65;;;0.93;;
22230;SDS011;11284;48.086;-1.652;2022-09-09T14:48:51;3.15;;;0.75;;
22230;SDS011;11284;48.086;-1.652;2022-09-09T14:51:19;3.67;;;0.70;;
22230;SDS011;11284;48.086;-1.652;2022-09-09T14:53:47;4.35;;;0.70;;
22230;SDS011;11284;48.086;-1.652;2022-09-09T14:56:14;2.70;;;0.65;;
22230;SDS011;11284;48.086;-1.652;2022-09-09T14:58:41;5.03;;;0.70;;
22230;SDS011;11284;48.086;-1.652;2022-09-09T15:01:08;2.95;;;0.70;;
22230;SDS011;11284;48.086;-1.652;2022-09-09T15:03:35;3.63;;;0.80;;
22230;SDS011;11284;48.086;-1.652;2022-09-09T15:06:05;3.40;;;0.73;;
22230;SDS011;11284;48.086;-1.652;2022-09-09T15:08:31;5.22;;;0.82;;
22230;SDS011;11284;48.086;-1.652;2022-09-09T15:11:01;4.25;;;0.90;;
22230;SDS011;11284;48.086;-1.652;2022-09-09T15:13:27;4.63;;;0.90;;
22230;SDS011;11284;48.086;-1.652;2022-09-09T15:15:53;4.88;;;0.98;;
22230;SDS011;11284;48.086;-1.652;2022-09-09T15:18:19;4.50;;;0.88;;
22230;SDS011;11284;48.086;-1.652;2022-09-09T15:20:45;3.90;;;1.00;;
22230;SDS011;11284;48.086;-1.652;2022-09-09T15:23:12;5.00;;;1.10;;
22230;SDS011;11284;48.086;-1.652;2022-09-09T15:25:38;3.47;;;0.93;;
22230;SDS011;11284;48.086;-1.652;2022-09-09T15:28:06;4.13;;;0.90;;
22230;SDS011;11284;48.086;-1.652;2022-09-09T15:30:31;6.25;;;1.00;;
22230;SDS011;11284;48.086;-1.652;2022-09-09T15:32:57;6.40;;;1.10;;
22230;SDS011;11284;48.086;-1.652;2022-09-09T15:35:23;6.63;;;0.95;;
22230;SDS011;11284;48.086;-1.652;2022-09-09T15:37:49;4.57;;;1.00;;
22230;SDS011;11284;48.086;-1.652;2022-09-09T15:40:15;4.35;;;1.20;;
22230;SDS011;11284;48.086;-1.652;2022-09-09T15:42:41;4.88;;;0.90;;
22230;SDS011;11284;48.086;-1.652;2022-09-09T15:45:08;5.82;;;1.00;;
22230;SDS011;11284;48.086;-1.652;2022-09-09T15:47:34;5.57;;;1.13;;
22230;SDS011;11284;48.086;-1.652;2022-09-09T15:50:00;5.22;;;1.10;;
22230;SDS011;11284;48.086;-1.652;2022-09-09T15:52:26;6.07;;;1.08;;
22230;SDS011;11284;48.086;-1.652;2022-09-09T15:54:52;5.15;;;0.98;;
22230;SDS011;11284;48.086;-1.652;2022-09-09T15:57:19;4.00;;;0.90;;
22230;SDS011;11284;48.086;-1.652;2022-09-09T15:59:45;6.30;;;1.02;;
22230;SDS011;11284;48.086;-1.652;2022-09-09T16:02:11;6.18;;;1.30;;
22230;SDS011;11284;48.086;-1.652;2022-09-09T16:04:37;6.45;;;1.10;;
22230;SDS011;11284;48.086;-1.652;2022-09-09T16:07:04;6.68;;;1.27;;
22230;SDS011;11284;48.086;-1.652;2022-09-09T16:09:30;5.10;;;1.00;;
22230;SDS011;11284;48.086;-1.652;2022-09-09T16:11:57;5.20;;;1.20;;
22230;SDS011;11284;48.086;-1.652;2022-09-09T16:14:23;5.82;;;1.23;;
22230;SDS011;11284;48.086;-1.652;2022-09-09T16:16:50;4.90;;;1.02;;
22230;SDS011;11284;48.086;-1.652;2022-09-09T16:19:17;6.40;;;1.42;;
22230;SDS011;11284;48.086;-1.652;2022-09-09T16:21:47;4.15;;;0.98;;
22230;SDS011;11284;48.086;-1.652;2022-09-09T16:24:14;5.05;;;0.90;;
22230;SDS011;11284;48.086;-1.652;2022-09-09T16:26:42;7.20;;;1.00;;
22230;SDS011;11284;48.086;-1.652;2022-09-09T16:29:10;4.45;;;1.10;;
22230;SDS011;11284;48.086;-1.652;2022-09-09T16:31:36;6.65;;;1.40;;
22230;SDS011;11284;48.086;-1.652;2022-09-09T16:34:02;6.40;;;1.10;;
22230;SDS011;11284;48.086;-1.652;2022-09-09T16:36:29;6.53;;;0.90;;
22230;SDS011;11284;48.086;-1.652;2022-09-09T16:38:57;4.43;;;1.00;;
22230;SDS011;11284;48.086;-1.652;2022-09-09T16:41:24;4.15;;;0.80;;
22230;SDS011;11284;48.086;-1.652;2022-09-09T16:43:53;6.13;;;1.10;;
22230;SDS011;11284;48.086;-1.652;2022-09-09T16:46:20;6.03;;;1.40;;
22230;SDS011;11284;48.086;-1.652;2022-09-09T16:48:47;5.88;;;1.25;;
22230;SDS011;11284;48.086;-1.652;2022-09-09T16:51:15;7.35;;;1.95;;
22230;SDS011;11284;48.086;-1.652;2022-09-09T16:53:41;6.78;;;1.85;;
22230;SDS011;11284;48.086;-1.652;2022-09-09T16:56:08;8.73;;;1.40;;